Nave Atria — 3FFV5 — position and weather

sailwx.info

Track history (hours):
 
Tides and Currents Weather Stations Pressure Air Temp Water Temp Dewpoint Dewpoint Depression Visibility Wind Speed Wind Dir Waves Ship Positions

Nave Atria

Last reported at 2018-Jul-15 20:36 UTC. Time now 2018-Jul-17 09:33 UTC.
Position N 57°24' E 021°33'.

Length 183 m; draft 7.8 m.

Type: Tanker. MMSI: 373664000.

Date/timePositionNaut miles runAvg speedWind from/ knotsBaromVisibWave heightAir tempDewpointWater temp
2018-Jul-15 20:36N 57°24' E 021°33'0 0.1
2018-Jul-15 20:30N 57°24' E 021°33'0 0.0
2018-Jul-15 20:00N 57°24' E 021°33'  
2018-Jul-10 07:00N 59°05' E 021°33'612.5
2018-Jul-10 06:29N 59°10' E 021°42'612.8
2018-Jul-10 06:00N 59°14' E 021°51'713.7
2018-Jul-10 05:31N 59°18' E 022°01'713.2
2018-Jul-10 05:00N 59°23' E 022°11'812.5
2018-Jul-10 04:19N 59°27' E 022°25'412.5
2018-Jul-10 04:00N 59°30' E 022°31'612.5
2018-Jul-10 03:30N 59°32' E 022°43'612.6
2018-Jul-10 03:00N 59°33' E 022°55'612.5
2018-Jul-10 02:30N 59°35' E 023°07'612.5
2018-Jul-10 02:00N 59°37' E 023°19'612.7
2018-Jul-10 01:30N 59°39' E 023°31'612.6
2018-Jul-10 01:00N 59°41' E 023°43'612.7
2018-Jul-10 00:30N 59°42' E 023°55'612.8
2018-Jul-10 00:00N 59°44' E 024°07'812.8
2018-Jul-09 23:23N 59°47' E 024°22'513.8
2018-Jul-09 23:00N 59°48' E 024°32'612.4
2018-Jul-09 22:30N 59°49' E 024°44'712.3
2018-Jul-09 21:59N 59°51' E 024°57'612.8
2018-Jul-09 21:30N 59°51' E 025°09'612.5
2018-Jul-09 21:00N 59°52' E 025°21'612.8
2018-Jul-09 20:30N 59°54' E 025°33'812.9
2018-Jul-09 19:55N 59°55' E 025°48'1013.0
2018-Jul-09 19:10N 59°58' E 026°07'312.9
2018-Jul-09 18:57N 59°58' E 026°12'612.8
2018-Jul-09 18:29N 59°60' E 026°24'612.3
2018-Jul-09 18:00N 60°01' E 026°35'612.6
2018-Jul-09 17:30N 60°00' E 026°48'912.2
2018-Jul-09 16:46N 60°00' E 027°06'417.0
2018-Jul-09 16:30N 60°02' E 027°13'510.4
2018-Jul-09 16:00N 60°05' E 027°22'713.0
2018-Jul-09 15:30N 60°09' E 027°33'612.9
2018-Jul-09 15:00N 60°12' E 027°44'612.7
2018-Jul-09 14:30N 60°11' E 027°57'613.0
2018-Jul-09 14:00N 60°09' E 028°10'612.5
2018-Jul-09 13:30N 60°06' E 028°21'612.6
2018-Jul-09 13:00N 60°03' E 028°32'510.5
2018-Jul-09 12:30N 59°58' E 028°35'4 8.1
2018-Jul-09 12:00N 59°54' E 028°32'611.1
2018-Jul-09 11:30N 59°50' E 028°26'611.1
2018-Jul-09 11:00N 59°44' E 028°24'3 6.9
2018-Jul-09 10:30N 59°41' E 028°24'1 1.5
2018-Jul-09 10:00N 59°41' E 028°23'0 0.0
2018-Jul-09 09:22N 59°41' E 028°23'0 0.0
2018-Jul-09 08:52N 59°41' E 028°23'0 0.0
2018-Jul-09 08:22N 59°41' E 028°23'0 0.0
2018-Jul-09 07:52N 59°41' E 028°23'0 0.0
2018-Jul-09 07:29N 59°41' E 028°23'0 0.0
2018-Jul-09 06:55N 59°41' E 028°23'0 0.0
2018-Jul-09 06:25N 59°41' E 028°23'0 0.0
2018-Jul-09 05:52N 59°41' E 028°23'0 0.0
2018-Jul-09 05:25N 59°41' E 028°23'0 0.0
2018-Jul-09 04:55N 59°41' E 028°23'0 0.0
2018-Jul-09 04:28N 59°41' E 028°23'0 0.0
2018-Jul-09 03:55N 59°41' E 028°23'0 0.0
2018-Jul-09 03:28N 59°41' E 028°23'0 0.0
2018-Jul-09 02:58N 59°41' E 028°23'0 0.0
2018-Jul-09 02:28N 59°41' E 028°23'0 0.0
2018-Jul-09 01:58N 59°41' E 028°23'0 0.0
2018-Jul-09 01:28N 59°41' E 028°23'0 0.0
2018-Jul-09 00:58N 59°41' E 028°23'0 0.0
2018-Jul-09 00:28N 59°41' E 028°23'0 0.0
2018-Jul-08 23:58N 59°41' E 028°23'0 0.0
2018-Jul-08 23:28N 59°41' E 028°23'0 0.0
2018-Jul-08 22:58N 59°41' E 028°23'0 0.0
2018-Jul-08 22:19N 59°41' E 028°23'0 0.0
2018-Jul-08 21:49N 59°41' E 028°23'0 0.0
2018-Jul-08 21:19N 59°41' E 028°23'0 0.0
2018-Jul-08 20:49N 59°41' E 028°23'0 0.0
2018-Jul-08 20:19N 59°41' E 028°23'0 0.0
2018-Jul-08 19:49N 59°41' E 028°23'0 0.0
2018-Jul-08 19:22N 59°41' E 028°23'0 0.0
2018-Jul-08 18:52N 59°41' E 028°23'0 0.0
2018-Jul-08 18:22N 59°41' E 028°23'0 0.0
2018-Jul-08 17:52N 59°41' E 028°23'0 0.0
2018-Jul-08 17:25N 59°41' E 028°23'0 0.0
2018-Jul-08 16:55N 59°41' E 028°23'0 0.0
2018-Jul-08 16:25N 59°41' E 028°23'0 0.0
2018-Jul-08 15:55N 59°41' E 028°23'0 0.0
2018-Jul-08 15:25N 59°41' E 028°23'0 0.0
2018-Jul-08 14:55N 59°41' E 028°23'0 0.0
2018-Jul-08 14:25N 59°41' E 028°23'0 0.0
2018-Jul-08 13:58N 59°41' E 028°23'0 0.0
2018-Jul-08 13:28N 59°41' E 028°23'0 0.0
2018-Jul-08 12:58N 59°41' E 028°23'0 0.0
2018-Jul-08 12:28N 59°41' E 028°23'0 0.0
2018-Jul-08 11:58N 59°41' E 028°23'0 0.0
2018-Jul-08 11:28N 59°41' E 028°23'0 0.0
2018-Jul-08 10:58N 59°41' E 028°23'0 0.0
2018-Jul-08 10:16N 59°41' E 028°23'0 0.0
2018-Jul-08 09:46N 59°41' E 028°23'0 0.0
2018-Jul-08 09:19N 59°41' E 028°23'0 0.0
2018-Jul-08 08:58N 59°41' E 028°23'0 0.0
2018-Jul-08 08:28N 59°41' E 028°23'0 0.0
2018-Jul-08 07:58N 59°41' E 028°23'0 0.0
2018-Jul-08 07:19N 59°41' E 028°23'0 0.0
2018-Jul-08 06:49N 59°41' E 028°23'0 0.0
2018-Jul-08 06:22N 59°41' E 028°23'0 0.0
2018-Jul-08 05:49N 59°41' E 028°23'0 0.0
2018-Jul-08 05:22N 59°41' E 028°23'0 0.0
2018-Jul-08 04:52N 59°41' E 028°23'0 0.0
2018-Jul-08 04:22N 59°41' E 028°23'0 0.0
2018-Jul-08 03:52N 59°41' E 028°23'0 0.0
2018-Jul-08 03:22N 59°41' E 028°23'0 0.0
2018-Jul-08 02:55N 59°41' E 028°23'0 0.0
2018-Jul-08 02:25N 59°41' E 028°23'0 0.0
2018-Jul-08 01:55N 59°41' E 028°23'0 0.0
2018-Jul-08 01:25N 59°41' E 028°23'0 0.0
2018-Jul-08 01:00N 59°41' E 028°23'0 0.0
2018-Jul-08 00:30N 59°41' E 028°23'0 0.8
2018-Jul-08 00:00N 59°41' E 028°24'2 4.2
2018-Jul-07 23:30N 59°43' E 028°24'4 7.4
2018-Jul-07 23:00N 59°46' E 028°24'0 0.5
2018-Jul-07 22:30N 59°46' E 028°24'0 0.0
2018-Jul-07 22:00N 59°46' E 028°24'0 0.0
2018-Jul-07 21:30N 59°46' E 028°24'0 0.0
2018-Jul-07 21:00N 59°46' E 028°24'0 0.1
2018-Jul-07 20:30N 59°46' E 028°24'0 0.0
2018-Jul-07 19:59N 59°46' E 028°24'0 0.0
2018-Jul-07 19:27N 59°46' E 028°24'0 0.1
2018-Jul-07 18:59N 59°46' E 028°24'0 0.1
2018-Jul-07 18:28N 59°47' E 028°24'0 0.0
2018-Jul-07 17:57N 59°47' E 028°24'0 0.0
2018-Jul-07 17:30N 59°47' E 028°24'0 0.0
2018-Jul-07 17:00N 59°47' E 028°24'0 0.1
2018-Jul-07 16:30N 59°46' E 028°24'0 0.1
2018-Jul-07 15:53N 59°46' E 028°24'0 0.0
2018-Jul-07 15:23N 59°46' E 028°24'0 0.0
2018-Jul-07 14:54N 59°46' E 028°24'0 0.0
2018-Jul-07 14:27N 59°46' E 028°24'0 0.0
2018-Jul-07 13:57N 59°46' E 028°24'0 0.0
2018-Jul-07 13:27N 59°46' E 028°24'0 0.0
2018-Jul-07 12:56N 59°46' E 028°24'0 0.1
2018-Jul-07 12:30N 59°46' E 028°24'0 0.0
2018-Jul-07 12:00N 59°46' E 028°24'0 0.1
2018-Jul-07 11:29N 59°46' E 028°24'0 0.0
2018-Jul-07 11:00N 59°46' E 028°24'0 0.0
2018-Jul-07 10:29N 59°46' E 028°24'0 0.1
2018-Jul-07 10:00N 59°46' E 028°24'0 0.0
2018-Jul-07 09:30N 59°46' E 028°24'0 0.0
2018-Jul-07 09:00N 59°46' E 028°24'0 0.1
2018-Jul-07 08:29N 59°46' E 028°24'0 0.1
2018-Jul-07 08:00N 59°46' E 028°24'0 0.0
2018-Jul-07 07:29N 59°46' E 028°24'0 0.0
2018-Jul-07 06:59N 59°46' E 028°24'0 0.0
2018-Jul-07 06:29N 59°46' E 028°24'0 0.0
2018-Jul-07 05:58N 59°46' E 028°24'0 0.3
2018-Jul-07 05:30N 59°47' E 028°24'2 3.5
2018-Jul-07 05:00N 59°48' E 028°25'510.1
2018-Jul-07 04:30N 59°53' E 028°29'4 8.5
2018-Jul-07 04:00N 59°54' E 028°37'0 0.8
2018-Jul-07 03:29N 59°54' E 028°38'0 0.1
2018-Jul-07 02:59N 59°54' E 028°38'0 0.1
2018-Jul-07 02:29N 59°54' E 028°38'0 0.0
2018-Jul-07 01:59N 59°54' E 028°38'0 0.1
2018-Jul-07 01:29N 59°54' E 028°38'0 0.1
2018-Jul-07 00:58N 59°54' E 028°38'0 0.0
2018-Jul-07 00:23N 59°54' E 028°38'0 0.0
2018-Jul-07 00:00N 59°54' E 028°38'0 0.0
2018-Jul-06 23:23N 59°54' E 028°38'0 0.0
2018-Jul-06 22:53N 59°54' E 028°38'0 0.0
2018-Jul-06 22:23N 59°54' E 028°38'0 0.0
2018-Jul-06 21:53N 59°54' E 028°38'0 0.0
2018-Jul-06 21:26N 59°54' E 028°38'0 0.0
2018-Jul-06 20:58N 59°54' E 028°38'0 0.0
2018-Jul-06 20:26N 59°54' E 028°38'0 0.0
2018-Jul-06 19:56N 59°54' E 028°38'0 0.0
2018-Jul-06 19:29N 59°54' E 028°38'0 0.0
2018-Jul-06 18:56N 59°54' E 028°38'0 0.0
2018-Jul-06 18:28N 59°54' E 028°38'0 0.0
2018-Jul-06 17:59N 59°54' E 028°38'0 0.0
2018-Jul-06 17:29N 59°54' E 028°38'0 0.0
2018-Jul-06 16:59N 59°54' E 028°38'0 0.0
2018-Jul-06 16:29N 59°54' E 028°38'0 0.0
2018-Jul-06 15:59N 59°54' E 028°38'0 0.0
2018-Jul-06 15:29N 59°54' E 028°38'0 0.0
2018-Jul-06 14:59N 59°54' E 028°38'0 0.0
2018-Jul-06 14:29N 59°54' E 028°38'0 0.0
2018-Jul-06 13:59N 59°54' E 028°38'0 0.0
2018-Jul-06 13:29N 59°54' E 028°38'0 0.0
2018-Jul-06 12:59N 59°54' E 028°38'0 0.0
2018-Jul-06 12:29N 59°54' E 028°38'0 0.0
2018-Jul-06 11:58N 59°54' E 028°38'0 0.0
2018-Jul-06 11:30N 59°54' E 028°38'0 0.1
2018-Jul-06 10:59N 59°54' E 028°38'0 0.1
2018-Jul-06 10:29N 59°54' E 028°38'0 0.0
2018-Jul-06 09:58N 59°54' E 028°38'0 0.0
2018-Jul-06 09:29N 59°54' E 028°38'0 0.0
2018-Jul-06 08:53N 59°54' E 028°38'0 0.0
2018-Jul-06 08:28N 59°54' E 028°38'0 0.0
2018-Jul-06 07:53N 59°54' E 028°38'0 0.0
2018-Jul-06 07:29N 59°54' E 028°38'0 0.0
2018-Jul-06 07:00N 59°54' E 028°38'0 0.0
2018-Jul-06 06:29N 59°54' E 028°38'0 0.0
2018-Jul-06 05:58N 59°54' E 028°38'0 0.0
2018-Jul-06 05:31N 59°54' E 028°38'0 0.0
2018-Jul-06 04:56N 59°54' E 028°38'0 0.0
2018-Jul-06 04:29N 59°54' E 028°38'0 0.0
2018-Jul-06 03:59N 59°54' E 028°38'0 0.0
2018-Jul-06 03:29N 59°54' E 028°38'0 0.0
2018-Jul-06 02:59N 59°54' E 028°38'0 0.0
2018-Jul-06 02:29N 59°54' E 028°38'0 0.0
2018-Jul-06 01:59N 59°54' E 028°38'0 0.0
2018-Jul-06 01:29N 59°54' E 028°38'0 0.0
2018-Jul-06 00:59N 59°54' E 028°38'0 0.0
2018-Jul-06 00:29N 59°54' E 028°38'0 0.0
2018-Jul-05 23:59N 59°54' E 028°38'0 0.0
2018-Jul-05 23:29N 59°54' E 028°38'0 0.0
2018-Jul-05 22:59N 59°54' E 028°38'0 0.0
2018-Jul-05 22:29N 59°54' E 028°38'0 0.0
2018-Jul-05 21:59N 59°54' E 028°38'0 0.0
2018-Jul-05 21:29N 59°54' E 028°38'0 0.0
2018-Jul-05 20:59N 59°54' E 028°38'  
Track history (hours):
 
Tides and Currents Weather Stations Pressure Air Temp Water Temp Dewpoint Dewpoint Depression Visibility Wind Speed Wind Dir Waves Ship Positions

Nave Atria

Last reported at 2018-Jul-15 20:36 UTC. Time now 2018-Jul-17 09:33 UTC.
Position N 57°24' E 021°33'.

Length 183 m; draft 7.8 m.

Type: Tanker. MMSI: 373664000.

Date/timePositionNaut miles runAvg speedWind from/ knotsBaromVisibWave heightAir tempDewpointWater temp
2018-Jul-15 20:36N 57°24' E 021°33'0 0.1
2018-Jul-15 20:30N 57°24' E 021°33'0 0.0
2018-Jul-15 20:00N 57°24' E 021°33'  
2018-Jul-10 07:00N 59°05' E 021°33'612.5
2018-Jul-10 06:29N 59°10' E 021°42'612.8
2018-Jul-10 06:00N 59°14' E 021°51'713.7
2018-Jul-10 05:31N 59°18' E 022°01'713.2
2018-Jul-10 05:00N 59°23' E 022°11'812.5
2018-Jul-10 04:19N 59°27' E 022°25'412.5
2018-Jul-10 04:00N 59°30' E 022°31'612.5
2018-Jul-10 03:30N 59°32' E 022°43'612.6
2018-Jul-10 03:00N 59°33' E 022°55'612.5
2018-Jul-10 02:30N 59°35' E 023°07'612.5
2018-Jul-10 02:00N 59°37' E 023°19'612.7
2018-Jul-10 01:30N 59°39' E 023°31'612.6
2018-Jul-10 01:00N 59°41' E 023°43'612.7
2018-Jul-10 00:30N 59°42' E 023°55'612.8
2018-Jul-10 00:00N 59°44' E 024°07'812.8
2018-Jul-09 23:23N 59°47' E 024°22'513.8
2018-Jul-09 23:00N 59°48' E 024°32'612.4
2018-Jul-09 22:30N 59°49' E 024°44'712.3
2018-Jul-09 21:59N 59°51' E 024°57'612.8
2018-Jul-09 21:30N 59°51' E 025°09'612.5
2018-Jul-09 21:00N 59°52' E 025°21'612.8
2018-Jul-09 20:30N 59°54' E 025°33'812.9
2018-Jul-09 19:55N 59°55' E 025°48'1013.0
2018-Jul-09 19:10N 59°58' E 026°07'312.9
2018-Jul-09 18:57N 59°58' E 026°12'612.8
2018-Jul-09 18:29N 59°60' E 026°24'612.3
2018-Jul-09 18:00N 60°01' E 026°35'612.6
2018-Jul-09 17:30N 60°00' E 026°48'912.2
2018-Jul-09 16:46N 60°00' E 027°06'417.0
2018-Jul-09 16:30N 60°02' E 027°13'510.4
2018-Jul-09 16:00N 60°05' E 027°22'713.0
2018-Jul-09 15:30N 60°09' E 027°33'612.9
2018-Jul-09 15:00N 60°12' E 027°44'612.7
2018-Jul-09 14:30N 60°11' E 027°57'613.0
2018-Jul-09 14:00N 60°09' E 028°10'612.5
2018-Jul-09 13:30N 60°06' E 028°21'612.6
2018-Jul-09 13:00N 60°03' E 028°32'510.5
2018-Jul-09 12:30N 59°58' E 028°35'4 8.1
2018-Jul-09 12:00N 59°54' E 028°32'611.1
2018-Jul-09 11:30N 59°50' E 028°26'611.1
2018-Jul-09 11:00N 59°44' E 028°24'3 6.9
2018-Jul-09 10:30N 59°41' E 028°24'1 1.5
2018-Jul-09 10:00N 59°41' E 028°23'0 0.0
2018-Jul-09 09:22N 59°41' E 028°23'0 0.0
2018-Jul-09 08:52N 59°41' E 028°23'0 0.0
2018-Jul-09 08:22N 59°41' E 028°23'0 0.0
2018-Jul-09 07:52N 59°41' E 028°23'0 0.0
2018-Jul-09 07:29N 59°41' E 028°23'0 0.0
2018-Jul-09 06:55N 59°41' E 028°23'0 0.0
2018-Jul-09 06:25N 59°41' E 028°23'0 0.0
2018-Jul-09 05:52N 59°41' E 028°23'0 0.0
2018-Jul-09 05:25N 59°41' E 028°23'0 0.0
2018-Jul-09 04:55N 59°41' E 028°23'0 0.0
2018-Jul-09 04:28N 59°41' E 028°23'0 0.0
2018-Jul-09 03:55N 59°41' E 028°23'0 0.0
2018-Jul-09 03:28N 59°41' E 028°23'0 0.0
2018-Jul-09 02:58N 59°41' E 028°23'0 0.0
2018-Jul-09 02:28N 59°41' E 028°23'0 0.0
2018-Jul-09 01:58N 59°41' E 028°23'0 0.0
2018-Jul-09 01:28N 59°41' E 028°23'0 0.0
2018-Jul-09 00:58N 59°41' E 028°23'0 0.0
2018-Jul-09 00:28N 59°41' E 028°23'0 0.0
2018-Jul-08 23:58N 59°41' E 028°23'0 0.0
2018-Jul-08 23:28N 59°41' E 028°23'0 0.0
2018-Jul-08 22:58N 59°41' E 028°23'0 0.0
2018-Jul-08 22:19N 59°41' E 028°23'0 0.0
2018-Jul-08 21:49N 59°41' E 028°23'0 0.0
2018-Jul-08 21:19N 59°41' E 028°23'0 0.0
2018-Jul-08 20:49N 59°41' E 028°23'0 0.0
2018-Jul-08 20:19N 59°41' E 028°23'0 0.0
2018-Jul-08 19:49N 59°41' E 028°23'0 0.0
2018-Jul-08 19:22N 59°41' E 028°23'0 0.0
2018-Jul-08 18:52N 59°41' E 028°23'0 0.0
2018-Jul-08 18:22N 59°41' E 028°23'0 0.0
2018-Jul-08 17:52N 59°41' E 028°23'0 0.0
2018-Jul-08 17:25N 59°41' E 028°23'0 0.0
2018-Jul-08 16:55N 59°41' E 028°23'0 0.0
2018-Jul-08 16:25N 59°41' E 028°23'0 0.0
2018-Jul-08 15:55N 59°41' E 028°23'0 0.0
2018-Jul-08 15:25N 59°41' E 028°23'0 0.0
2018-Jul-08 14:55N 59°41' E 028°23'0 0.0
2018-Jul-08 14:25N 59°41' E 028°23'0 0.0
2018-Jul-08 13:58N 59°41' E 028°23'0 0.0
2018-Jul-08 13:28N 59°41' E 028°23'0 0.0
2018-Jul-08 12:58N 59°41' E 028°23'0 0.0
2018-Jul-08 12:28N 59°41' E 028°23'0 0.0
2018-Jul-08 11:58N 59°41' E 028°23'0 0.0
2018-Jul-08 11:28N 59°41' E 028°23'0 0.0
2018-Jul-08 10:58N 59°41' E 028°23'0 0.0
2018-Jul-08 10:16N 59°41' E 028°23'0 0.0
2018-Jul-08 09:46N 59°41' E 028°23'0 0.0
2018-Jul-08 09:19N 59°41' E 028°23'0 0.0
2018-Jul-08 08:58N 59°41' E 028°23'0 0.0
2018-Jul-08 08:28N 59°41' E 028°23'0 0.0
2018-Jul-08 07:58N 59°41' E 028°23'0 0.0
2018-Jul-08 07:19N 59°41' E 028°23'0 0.0
2018-Jul-08 06:49N 59°41' E 028°23'0 0.0
2018-Jul-08 06:22N 59°41' E 028°23'0 0.0
2018-Jul-08 05:49N 59°41' E 028°23'0 0.0
2018-Jul-08 05:22N 59°41' E 028°23'0 0.0
2018-Jul-08 04:52N 59°41' E 028°23'0 0.0
2018-Jul-08 04:22N 59°41' E 028°23'0 0.0
2018-Jul-08 03:52N 59°41' E 028°23'0 0.0
2018-Jul-08 03:22N 59°41' E 028°23'0 0.0
2018-Jul-08 02:55N 59°41' E 028°23'0 0.0
2018-Jul-08 02:25N 59°41' E 028°23'0 0.0
2018-Jul-08 01:55N 59°41' E 028°23'0 0.0
2018-Jul-08 01:25N 59°41' E 028°23'0 0.0
2018-Jul-08 01:00N 59°41' E 028°23'0 0.0
2018-Jul-08 00:30N 59°41' E 028°23'0 0.8
2018-Jul-08 00:00N 59°41' E 028°24'2 4.2
2018-Jul-07 23:30N 59°43' E 028°24'4 7.4
2018-Jul-07 23:00N 59°46' E 028°24'0 0.5
2018-Jul-07 22:30N 59°46' E 028°24'0 0.0
2018-Jul-07 22:00N 59°46' E 028°24'0 0.0
2018-Jul-07 21:30N 59°46' E 028°24'0 0.0
2018-Jul-07 21:00N 59°46' E 028°24'0 0.1
2018-Jul-07 20:30N 59°46' E 028°24'0 0.0
2018-Jul-07 19:59N 59°46' E 028°24'0 0.0
2018-Jul-07 19:27N 59°46' E 028°24'0 0.1
2018-Jul-07 18:59N 59°46' E 028°24'0 0.1
2018-Jul-07 18:28N 59°47' E 028°24'0 0.0
2018-Jul-07 17:57N 59°47' E 028°24'0 0.0
2018-Jul-07 17:30N 59°47' E 028°24'0 0.0
2018-Jul-07 17:00N 59°47' E 028°24'0 0.1
2018-Jul-07 16:30N 59°46' E 028°24'0 0.1
2018-Jul-07 15:53N 59°46' E 028°24'0 0.0
2018-Jul-07 15:23N 59°46' E 028°24'0 0.0
2018-Jul-07 14:54N 59°46' E 028°24'0 0.0
2018-Jul-07 14:27N 59°46' E 028°24'0 0.0
2018-Jul-07 13:57N 59°46' E 028°24'0 0.0
2018-Jul-07 13:27N 59°46' E 028°24'0 0.0
2018-Jul-07 12:56N 59°46' E 028°24'0 0.1
2018-Jul-07 12:30N 59°46' E 028°24'0 0.0
2018-Jul-07 12:00N 59°46' E 028°24'0 0.1
2018-Jul-07 11:29N 59°46' E 028°24'0 0.0
2018-Jul-07 11:00N 59°46' E 028°24'0 0.0
2018-Jul-07 10:29N 59°46' E 028°24'0 0.1
2018-Jul-07 10:00N 59°46' E 028°24'0 0.0
2018-Jul-07 09:30N 59°46' E 028°24'0 0.0
2018-Jul-07 09:00N 59°46' E 028°24'0 0.1
2018-Jul-07 08:29N 59°46' E 028°24'0 0.1
2018-Jul-07 08:00N 59°46' E 028°24'0 0.0
2018-Jul-07 07:29N 59°46' E 028°24'0 0.0
2018-Jul-07 06:59N 59°46' E 028°24'0 0.0
2018-Jul-07 06:29N 59°46' E 028°24'0 0.0
2018-Jul-07 05:58N 59°46' E 028°24'0 0.3
2018-Jul-07 05:30N 59°47' E 028°24'2 3.5
2018-Jul-07 05:00N 59°48' E 028°25'510.1
2018-Jul-07 04:30N 59°53' E 028°29'4 8.5
2018-Jul-07 04:00N 59°54' E 028°37'0 0.8
2018-Jul-07 03:29N 59°54' E 028°38'0 0.1
2018-Jul-07 02:59N 59°54' E 028°38'0 0.1
2018-Jul-07 02:29N 59°54' E 028°38'0 0.0
2018-Jul-07 01:59N 59°54' E 028°38'0 0.1
2018-Jul-07 01:29N 59°54' E 028°38'0 0.1
2018-Jul-07 00:58N 59°54' E 028°38'0 0.0
2018-Jul-07 00:23N 59°54' E 028°38'0 0.0
2018-Jul-07 00:00N 59°54' E 028°38'0 0.0
2018-Jul-06 23:23N 59°54' E 028°38'0 0.0
2018-Jul-06 22:53N 59°54' E 028°38'0 0.0
2018-Jul-06 22:23N 59°54' E 028°38'0 0.0
2018-Jul-06 21:53N 59°54' E 028°38'0 0.0
2018-Jul-06 21:26N 59°54' E 028°38'0 0.0
2018-Jul-06 20:58N 59°54' E 028°38'0 0.0
2018-Jul-06 20:26N 59°54' E 028°38'0 0.0
2018-Jul-06 19:56N 59°54' E 028°38'0 0.0
2018-Jul-06 19:29N 59°54' E 028°38'0 0.0
2018-Jul-06 18:56N 59°54' E 028°38'0 0.0
2018-Jul-06 18:28N 59°54' E 028°38'0 0.0
2018-Jul-06 17:59N 59°54' E 028°38'0 0.0
2018-Jul-06 17:29N 59°54' E 028°38'0 0.0
2018-Jul-06 16:59N 59°54' E 028°38'0 0.0
2018-Jul-06 16:29N 59°54' E 028°38'0 0.0
2018-Jul-06 15:59N 59°54' E 028°38'0 0.0
2018-Jul-06 15:29N 59°54' E 028°38'0 0.0
2018-Jul-06 14:59N 59°54' E 028°38'0 0.0
2018-Jul-06 14:29N 59°54' E 028°38'0 0.0
2018-Jul-06 13:59N 59°54' E 028°38'0 0.0
2018-Jul-06 13:29N 59°54' E 028°38'0 0.0
2018-Jul-06 12:59N 59°54' E 028°38'0 0.0
2018-Jul-06 12:29N 59°54' E 028°38'0 0.0
2018-Jul-06 11:58N 59°54' E 028°38'0 0.0
2018-Jul-06 11:30N 59°54' E 028°38'0 0.1
2018-Jul-06 10:59N 59°54' E 028°38'0 0.1
2018-Jul-06 10:29N 59°54' E 028°38'0 0.0
2018-Jul-06 09:58N 59°54' E 028°38'0 0.0
2018-Jul-06 09:29N 59°54' E 028°38'0 0.0
2018-Jul-06 08:53N 59°54' E 028°38'0 0.0
2018-Jul-06 08:28N 59°54' E 028°38'0 0.0
2018-Jul-06 07:53N 59°54' E 028°38'0 0.0
2018-Jul-06 07:29N 59°54' E 028°38'0 0.0
2018-Jul-06 07:00N 59°54' E 028°38'0 0.0
2018-Jul-06 06:29N 59°54' E 028°38'0 0.0
2018-Jul-06 05:58N 59°54' E 028°38'0 0.0
2018-Jul-06 05:31N 59°54' E 028°38'0 0.0
2018-Jul-06 04:56N 59°54' E 028°38'0 0.0
2018-Jul-06 04:29N 59°54' E 028°38'0 0.0
2018-Jul-06 03:59N 59°54' E 028°38'0 0.0
2018-Jul-06 03:29N 59°54' E 028°38'0 0.0
2018-Jul-06 02:59N 59°54' E 028°38'0 0.0
2018-Jul-06 02:29N 59°54' E 028°38'0 0.0
2018-Jul-06 01:59N 59°54' E 028°38'0 0.0
2018-Jul-06 01:29N 59°54' E 028°38'0 0.0
2018-Jul-06 00:59N 59°54' E 028°38'0 0.0
2018-Jul-06 00:29N 59°54' E 028°38'0 0.0
2018-Jul-05 23:59N 59°54' E 028°38'0 0.0
2018-Jul-05 23:29N 59°54' E 028°38'0 0.0
2018-Jul-05 22:59N 59°54' E 028°38'0 0.0
2018-Jul-05 22:29N 59°54' E 028°38'0 0.0
2018-Jul-05 21:59N 59°54' E 028°38'0 0.0
2018-Jul-05 21:29N 59°54' E 028°38'0 0.0
2018-Jul-05 20:59N 59°54' E 028°38'  

Dump ship's entire track history